Time;durP1;ratioP1;P1;durP2;ratioP2;P2;SDS_P1;SDS_P2;PMS_P1;PMS_P2;Temp;Humidity;BMP_temperature;BMP_pressure;BME280_temperature;BME280_humidity;BME280_pressure;Samples;Min_cycle;Max_cycle;Signal;HPM_P1;HPM_P2
2021/07/23 00:02:08;;;;;;;17.00;15.40;;;16.30;74.50;;;15.42;76.55;98055.84;4971119;28;20460;-85
2021/07/23 00:04:35;;;;;;;16.80;14.97;;;16.30;75.10;;;15.39;76.81;98061.78;4973970;28;20472;-86
2021/07/23 00:07:02;;;;;;;17.53;15.97;;;16.20;76.00;;;14.95;76.70;97986.19;4971308;28;21034;-85
2021/07/23 00:09:30;;;;;;;18.47;15.37;;;16.20;76.30;;;15.30;76.94;98058.63;4966519;28;20460;-86
2021/07/23 00:11:57;;;;;;;18.17;16.37;;;16.10;76.40;;;15.42;76.47;98055.03;4969030;28;20485;-86
2021/07/23 00:14:26;;;;;;;20.83;17.60;;;16.20;77.00;;;15.35;76.20;98043.47;4977699;28;20507;-86
2021/07/23 00:16:53;;;;;;;18.33;16.67;;;16.20;77.10;;;15.14;76.22;98016.72;4974756;28;20511;-86
2021/07/23 00:19:21;;;;;;;19.43;16.47;;;16.20;77.00;;;15.50;76.24;98057.31;4972205;28;20473;-86
2021/07/23 00:21:48;;;;;;;19.63;16.57;;;16.20;76.70;;;15.37;76.50;98053.03;4976877;28;20998;-86
2021/07/23 00:24:18;;;;;;;18.37;16.57;;;16.20;76.80;;;15.30;76.53;98050.47;4982527;28;20549;-86
2021/07/23 00:26:52;;;;;;;18.47;16.70;;;16.10;77.00;;;15.24;77.24;98058.78;4977136;28;20441;-86
2021/07/23 00:29:20;;;;;;;19.57;17.60;;;16.10;77.70;;;15.21;77.25;98062.81;4973705;28;20457;-86
2021/07/23 00:31:48;;;;;;;17.80;15.90;;;16.00;78.10;;;14.75;77.07;97993.97;4980458;28;20460;-86
2021/07/23 00:34:15;;;;;;;18.50;16.90;;;16.00;78.50;;;15.11;77.29;98059.94;4996469;28;20469;-87
2021/07/23 00:36:42;;;;;;;18.47;16.63;;;15.90;78.90;;;15.02;78.11;98051.34;4996798;28;20513;-87
2021/07/23 00:39:09;;;;;;;18.27;16.43;;;15.80;79.60;;;14.91;78.29;98066.63;4995606;28;20485;-85
2021/07/23 00:41:36;;;;;;;20.20;18.07;;;15.80;80.00;;;14.85;78.39;98059.44;4992994;28;20468;-86
2021/07/23 00:44:03;;;;;;;18.03;16.40;;;15.70;80.70;;;14.84;78.52;98055.88;4987533;28;20457;-86
2021/07/23 00:46:31;;;;;;;19.37;17.53;;;15.60;81.40;;;14.81;78.92;98063.72;4992152;28;20484;-85
2021/07/23 00:49:00;;;;;;;19.87;17.00;;;15.70;81.60;;;14.82;78.90;98057.22;4991465;28;20483;-85
2021/07/23 00:51:28;;;;;;;19.97;17.87;;;15.60;82.00;;;14.63;78.93;98030.16;4981120;28;20992;-86
2021/07/23 00:53:56;;;;;;;19.17;17.37;;;15.60;82.40;;;14.78;79.37;98048.69;4976818;28;21070;-86
2021/07/23 00:56:23;;;;;;;19.23;17.50;;;15.50;83.00;;;14.55;79.78;98036.78;4971531;28;20516;-85
2021/07/23 00:58:51;;;;;;;19.17;16.67;;;15.50;83.30;;;14.69;79.10;98052.81;4975290;28;20488;-85
2021/07/23 01:01:18;;;;;;;19.27;17.27;;;15.50;83.40;;;14.24;79.08;97989.97;4971084;28;20463;-86
2021/07/23 01:03:45;;;;;;;17.73;16.13;;;15.50;83.00;;;14.63;79.50;98054.63;4968781;28;20460;-85
2021/07/23 01:06:14;;;;;;;19.03;17.23;;;15.40;83.40;;;14.38;79.33;98028.59;4973355;28;20463;-86
2021/07/23 01:08:42;;;;;;;19.40;15.10;;;15.60;84.00;;;14.22;79.45;98002.16;4972254;28;20453;-86
2021/07/23 01:11:09;;;;;;;19.73;17.63;;;15.40;83.60;;;14.42;79.39;98042.53;4973603;28;20571;-86
2021/07/23 01:13:36;;;;;;;18.80;16.83;;;15.40;83.90;;;14.29;79.39;98032.72;4975899;28;20466;-85
2021/07/23 01:16:04;;;;;;;20.27;17.40;;;15.30;83.80;;;14.38;79.52;98052.19;4974813;28;20548;-86
2021/07/23 01:18:31;;;;;;;17.70;15.87;;;15.30;83.90;;;14.27;79.96;98037.56;4970640;28;20572;-85
2021/07/23 01:21:00;;;;;;;17.87;16.03;;;15.20;84.50;;;13.95;79.71;97989.09;4987705;28;20481;-85
2021/07/23 01:23:30;;;;;;;18.03;16.13;;;15.10;84.40;;;14.19;80.10;98043.41;4976329;28;20453;-86
2021/07/23 01:25:58;;;;;;;23.10;16.67;;;15.10;84.50;;;13.54;80.35;97954.50;4974889;28;20824;-86
2021/07/23 01:28:26;;;;;;;20.13;18.10;;;15.00;85.00;;;14.05;80.36;98040.94;4978920;28;20459;-87
2021/07/23 01:30:53;;;;;;;17.87;16.00;;;15.10;85.40;;;13.24;80.87;97908.47;4995190;28;20485;-85
2021/07/23 01:33:20;;;;;;;19.40;16.87;;;14.90;86.00;;;13.81;80.69;98015.66;4983455;28;20564;-84
2021/07/23 01:35:47;;;;;;;18.90;16.90;;;14.90;86.20;;;13.79;80.45;98005.03;4986243;28;20487;-86
2021/07/23 01:38:17;;;;;;;18.23;16.40;;;14.80;86.20;;;13.94;80.90;98030.88;4976137;28;20480;-88
2021/07/23 01:40:47;;;;;;;18.30;16.50;;;14.80;86.70;;;13.62;80.83;97987.81;4991224;28;20492;-87
2021/07/23 01:43:15;;;;;;;17.40;15.60;;;14.80;86.60;;;13.99;80.02;98022.84;4993374;28;20457;-86
2021/07/23 01:45:42;;;;;;;17.83;15.80;;;14.90;86.10;;;14.10;79.74;98037.47;4958921;28;20515;-83
2021/07/23 01:48:09;;;;;;;19.83;16.10;;;14.90;85.40;;;14.07;79.98;98052.38;4972881;28;20553;-85
2021/07/23 01:50:37;;;;;;;19.13;17.33;;;14.90;85.50;;;13.97;80.32;98041.28;4967277;28;20446;-86
2021/07/23 01:53:05;;;;;;;19.77;16.50;;;14.80;85.80;;;13.85;80.60;98044.00;4972689;28;20552;-86
2021/07/23 01:55:31;;;;;;;17.50;15.80;;;14.80;86.00;;;13.72;80.79;98040.44;4977928;28;20442;-86
2021/07/23 01:58:01;;;;;;;16.60;14.90;;;14.70;86.30;;;13.76;80.56;98029.09;4971370;28;20478;-85
2021/07/23 02:00:28;;;;;;;18.37;16.57;;;14.60;86.40;;;13.71;80.72;98036.09;4974115;28;20466;-86
2021/07/23 02:02:54;;;;;;;17.30;15.50;;;14.60;86.50;;;13.67;80.90;98031.34;4973096;28;20488;-86
2021/07/23 02:05:23;;;;;;;18.07;16.27;;;14.70;86.80;;;13.65;81.28;98041.63;4972191;28;20453;-86
2021/07/23 02:07:50;;;;;;;17.60;15.90;;;14.60;87.30;;;13.27;81.64;97995.66;4970162;28;20525;-86
2021/07/23 02:10:17;;;;;;;17.80;16.10;;;14.50;87.90;;;13.60;81.54;98032.31;4976214;28;20540;-86
2021/07/23 02:12:44;;;;;;;19.43;15.47;;;14.50;88.10;;;13.56;81.46;98031.09;4971352;28;21193;-86
2021/07/23 02:15:13;;;;;;;16.93;15.23;;;14.50;88.20;;;13.53;81.40;98031.56;4971980;28;20461;-86
2021/07/23 02:17:40;;;;;;;17.60;15.80;;;14.50;88.20;;;13.16;81.68;97980.19;4972544;28;20472;-86
2021/07/23 02:20:09;;;;;;;16.93;15.13;;;14.40;88.30;;;13.40;81.76;98015.47;4973620;28;20466;-87
2021/07/23 02:22:37;;;;;;;17.57;15.73;;;14.40;88.80;;;13.17;81.79;97985.34;4986649;28;20469;-87
2021/07/23 02:25:05;;;;;;;16.57;14.77;;;14.30;88.90;;;13.35;81.85;98018.06;4995589;28;20472;-87
2021/07/23 02:27:34;;;;;;;17.57;15.77;;;14.40;89.20;;;13.36;82.10;98026.00;4985677;28;21036;-86
2021/07/23 02:30:01;;;;;;;21.80;17.37;;;14.40;89.50;;;13.38;81.87;98034.72;4974558;28;20492;-85
2021/07/23 02:32:32;;;;;;;21.10;16.87;;;14.30;89.20;;;13.31;81.93;98034.81;4979612;28;20444;-85
2021/07/23 02:34:59;;;;;;;17.93;16.23;;;14.20;89.20;;;13.29;82.34;98036.09;4963684;28;20454;-85
2021/07/23 02:37:26;;;;;;;19.33;17.27;;;14.20;89.90;;;13.29;82.39;98034.22;4969847;28;20485;-86
2021/07/23 02:39:53;;;;;;;18.53;16.77;;;14.20;90.20;;;13.24;82.14;98020.53;4972628;28;20461;-86
2021/07/23 02:42:19;;;;;;;18.37;16.30;;;14.20;89.80;;;13.28;82.31;98032.59;4970880;28;20466;-86
2021/07/23 02:44:46;;;;;;;18.00;16.30;;;14.20;90.10;;;13.26;82.04;98031.16;4967266;28;20450;-86
2021/07/23 02:47:14;;;;;;;17.53;15.93;;;14.10;90.20;;;13.11;82.14;98008.00;4973762;28;20467;-87
2021/07/23 02:49:43;;;;;;;18.20;16.50;;;14.10;90.10;;;13.23;82.53;98035.16;4973643;28;20481;-87
2021/07/23 02:52:10;;;;;;;17.20;15.40;;;14.10;90.20;;;13.25;82.23;98034.94;4972431;28;20456;-86
2021/07/23 02:54:37;;;;;;;17.87;16.03;;;14.10;90.20;;;13.18;82.25;98024.19;4966193;28;20455;-86
2021/07/23 02:57:08;;;;;;;17.20;15.60;;;14.20;90.10;;;12.97;82.69;97991.13;4970789;28;20481;-86
2021/07/23 02:59:35;;;;;;;17.27;15.63;;;14.10;90.30;;;13.08;82.26;98021.19;4963904;28;20472;-87
2021/07/23 03:02:03;;;;;;;17.37;15.63;;;14.10;90.20;;;13.07;82.46;98017.66;4969925;28;20577;-87
2021/07/23 03:04:30;;;;;;;18.00;15.53;;;14.00;90.20;;;13.05;82.79;98025.22;4968836;28;21265;-86
2021/07/23 03:06:58;;;;;;;19.10;15.97;;;14.00;90.40;;;12.98;82.41;98009.03;4967317;28;20457;-86
2021/07/23 03:09:25;;;;;;;17.73;15.90;;;14.00;90.40;;;13.01;82.87;98014.00;4955588;28;20457;-84
2021/07/23 03:11:52;;;;;;;17.30;15.60;;;13.90;90.30;;;13.02;82.61;98014.81;4969757;28;20463;-84
2021/07/23 03:14:19;;;;;;;18.53;16.77;;;13.90;90.30;;;12.36;82.36;97926.09;4970930;28;20540;-84
2021/07/23 03:16:46;;;;;;;19.50;17.03;;;14.10;90.40;;;12.82;82.68;97993.44;4969416;28;20499;-84
2021/07/23 03:19:13;;;;;;;18.17;16.37;;;13.90;90.40;;;12.94;82.32;98007.81;4959396;28;20452;-83
2021/07/23 03:21:40;;;;;;;17.93;15.50;;;13.90;90.40;;;12.92;82.22;98007.22;4970796;28;20463;-84
2021/07/23 03:24:09;;;;;;;17.13;15.37;;;13.80;90.40;;;12.29;82.70;97917.22;4978716;28;20910;-84
2021/07/23 03:26:36;;;;;;;17.93;16.13;;;13.80;90.40;;;12.80;82.72;98007.19;4975606;28;20457;-84
2021/07/23 03:29:04;;;;;;;18.23;16.20;;;13.80;90.70;;;12.83;82.79;98011.34;4976929;28;20814;-84
2021/07/23 03:31:32;;;;;;;18.23;16.33;;;13.90;91.00;;;12.80;83.02;98007.19;4968063;28;20460;-84
2021/07/23 03:33:59;;;;;;;20.67;18.60;;;13.70;91.00;;;12.71;83.02;97997.72;4965724;28;20794;-84
2021/07/23 03:36:26;;;;;;;18.13;16.33;;;13.70;91.10;;;12.52;83.49;97969.88;4975723;28;20449;-84
2021/07/23 03:38:53;;;;;;;18.17;16.33;;;13.70;91.10;;;12.78;83.40;97998.47;4976406;28;20448;-84
2021/07/23 03:41:21;;;;;;;18.77;16.97;;;13.70;91.30;;;12.75;83.52;98010.59;4974850;28;20832;-84
2021/07/23 03:43:49;;;;;;;18.43;16.30;;;13.70;91.30;;;12.76;83.51;98003.31;4974503;28;20450;-85
2021/07/23 03:46:16;;;;;;;18.83;16.93;;;13.80;91.50;;;12.83;82.95;98001.31;4977517;28;20825;-85
2021/07/23 03:48:43;;;;;;;18.13;16.43;;;13.70;91.20;;;12.41;82.94;97928.94;4966646;28;20464;-85
2021/07/23 03:51:10;;;;;;;21.83;19.57;;;13.80;91.00;;;12.87;82.73;97996.25;4972975;28;20456;-86
2021/07/23 03:53:37;;;;;;;19.30;17.30;;;13.80;90.80;;;12.97;82.27;98001.97;4966931;28;20468;-84
2021/07/23 03:56:06;;;;;;;18.77;16.50;;;14.00;90.60;;;12.71;82.40;97952.47;4968401;28;20480;-86
2021/07/23 03:58:36;;;;;;;18.07;16.23;;;13.90;90.20;;;13.07;81.88;97997.84;4973702;28;20496;-85
2021/07/23 04:01:05;;;;;;;19.20;17.17;;;14.00;89.80;;;12.85;82.10;97982.94;4972672;28;21035;-86
2021/07/23 04:03:35;;;;;;;22.27;18.13;;;14.10;89.80;;;12.61;82.36;97938.66;4967984;28;20907;-86
2021/07/23 04:06:02;;;;;;;18.77;16.77;;;13.90;89.80;;;12.73;82.04;97953.06;4971933;28;20571;-85
2021/07/23 04:08:30;;;;;;;20.67;18.63;;;14.00;89.60;;;12.98;81.84;97976.50;4967264;28;20537;-86
2021/07/23 04:10:57;;;;;;;17.80;16.10;;;14.20;89.10;;;13.47;80.42;97994.53;4955771;28;20548;-85
2021/07/23 04:13:24;;;;;;;18.80;17.00;;;14.60;86.00;;;13.88;78.72;97989.22;4966072;28;20442;-86
2021/07/23 04:15:52;;;;;;;18.17;15.63;;;15.10;82.80;;;13.99;78.02;97987.53;4972949;28;20961;-86
2021/07/23 04:18:20;;;;;;;17.63;15.73;;;15.70;80.20;;;14.57;75.86;97998.50;4967667;28;20549;-86
2021/07/23 04:20:47;;;;;;;17.70;16.00;;;16.00;77.80;;;14.55;75.77;97997.91;4995840;28;20488;-87
2021/07/23 04:23:14;;;;;;;16.80;15.30;;;16.10;76.00;;;14.82;75.18;97997.38;4972119;28;20461;-85
2021/07/23 04:25:41;;;;;;;18.00;16.10;;;16.40;74.70;;;15.30;73.09;97998.75;4971962;28;20481;-85
2021/07/23 04:28:09;;;;;;;16.60;14.90;;;16.80;73.00;;;15.36;73.07;98007.84;4975161;28;20445;-85
2021/07/23 04:30:36;;;;;;;15.93;14.40;;;17.10;71.60;;;15.58;72.11;98005.19;4970133;28;20520;-86
2021/07/23 04:33:07;;;;;;;19.57;15.80;;;17.30;70.10;;;15.51;71.88;97982.75;4971054;28;20456;-85
2021/07/23 04:35:34;;;;;;;14.43;13.03;;;17.80;68.80;;;16.18;69.63;98010.16;4973476;28;20462;-86
2021/07/23 04:38:01;;;;;;;18.17;15.57;;;17.90;67.30;;;15.97;69.34;97979.91;4974233;28;20963;-87
2021/07/23 04:40:28;;;;;;;15.27;13.87;;;17.80;66.90;;;16.17;68.62;97972.25;4988183;28;20474;-86
2021/07/23 04:42:55;;;;;;;15.07;13.70;;;18.10;66.20;;;16.34;68.51;97994.81;4989582;28;20529;-84
2021/07/23 04:45:22;;;;;;;14.90;13.47;;;18.10;65.90;;;16.70;68.01;98018.97;4973761;28;20463;-85
2021/07/23 04:47:49;;;;;;;16.20;14.53;;;18.40;65.20;;;16.90;67.13;98012.88;4969452;28;20457;-86
2021/07/23 04:50:17;;;;;;;16.97;15.27;;;18.70;64.10;;;16.68;66.44;97967.38;4985249;28;20524;-86
2021/07/23 04:52:44;;;;;;;17.13;14.97;;;18.80;63.40;;;16.98;65.80;97987.88;4994996;28;20517;-86
2021/07/23 04:55:13;;;;;;;16.40;14.60;;;18.90;62.80;;;16.88;66.37;98006.88;4974306;28;20569;-85
2021/07/23 04:57:44;;;;;;;16.20;14.70;;;18.80;62.30;;;17.01;66.35;98015.75;4972438;28;20514;-85
2021/07/23 05:00:13;;;;;;;15.33;13.83;;;19.00;62.10;;;16.81;66.11;97987.97;4973030;28;20557;-88
2021/07/23 05:02:42;;;;;;;16.27;14.57;;;19.10;61.40;;;17.21;64.92;97994.13;4980031;28;20458;-88
2021/07/23 05:05:15;;;;;;;16.13;14.37;;;19.60;60.90;;;17.19;64.61;97955.34;4970024;28;20457;-87
2021/07/23 05:07:45;;;;;;;17.10;14.77;;;20.10;60.00;;;18.03;63.15;98001.31;4966899;28;20466;-88
2021/07/23 05:10:12;;;;;;;18.10;15.07;;;20.40;59.20;;;17.63;63.96;98002.63;4975532;28;20454;-86
2021/07/23 05:12:40;;;;;;;15.07;13.57;;;20.10;58.70;;;18.22;62.72;98007.16;4967007;28;20871;-86
2021/07/23 05:15:10;;;;;;;17.00;15.00;;;20.40;58.90;;;18.86;60.72;98003.53;4970094;28;20464;-86
2021/07/23 05:17:38;;;;;;;19.53;14.53;;;20.70;58.60;;;18.50;61.41;97998.78;4970755;28;20999;-88
2021/07/23 05:20:09;;;;;;;16.70;15.03;;;20.70;58.30;;;19.00;60.54;98014.81;4969641;28;20983;-86
2021/07/23 05:22:41;;;;;;;17.40;15.60;;;20.90;58.30;;;19.20;59.51;98011.28;4966491;28;20452;-86
2021/07/23 05:25:12;;;;;;;16.70;14.40;;;21.10;57.80;;;18.83;60.81;98007.63;4977667;28;20525;-86
2021/07/23 05:27:39;;;;;;;16.63;15.10;;;21.20;57.70;;;18.90;61.01;98013.69;4983378;28;20584;-86
2021/07/23 05:30:08;;;;;;;15.47;13.93;;;21.30;57.40;;;18.57;60.89;97974.72;4971105;28;20449;-86
2021/07/23 05:32:35;;;;;;;16.87;15.27;;;21.30;57.20;;;18.91;61.06;98015.31;4972664;28;20461;-85
2021/07/23 05:35:02;;;;;;;17.50;15.70;;;21.10;57.40;;;19.45;59.36;98007.72;4971787;28;20487;-87
2021/07/23 05:37:29;;;;;;;17.53;15.70;;;21.50;57.30;;;19.21;59.74;98013.75;4972610;28;20533;-85
2021/07/23 05:39:56;;;;;;;17.17;15.47;;;21.30;57.00;;;19.22;59.98;98014.56;4974113;28;20451;-85
2021/07/23 05:42:24;;;;;;;16.80;14.57;;;21.30;57.10;;;19.03;60.27;97995.09;4970465;28;20548;-86
2021/07/23 05:44:52;;;;;;;18.50;15.07;;;21.30;57.20;;;19.29;58.97;97982.28;4973734;28;20459;-86
2021/07/23 05:47:19;;;;;;;17.20;15.50;;;21.60;56.80;;;19.28;59.62;97993.50;4973451;28;20528;-86
2021/07/23 05:49:46;;;;;;;16.10;14.50;;;21.60;56.90;;;19.31;60.13;97995.69;4978687;28;20446;-86
2021/07/23 05:52:13;;;;;;;16.77;14.97;;;21.60;57.00;;;19.38;59.96;97986.09;4974599;28;20968;-85
2021/07/23 05:54:42;;;;;;;17.53;15.77;;;22.30;56.50;;;19.65;59.22;98000.63;4970487;28;20453;-85
2021/07/23 05:57:09;;;;;;;17.07;15.47;;;22.60;55.90;;;19.88;59.28;98012.09;4973000;28;20553;-85
2021/07/23 05:59:38;;;;;;;19.07;14.73;;;22.50;56.20;;;19.71;58.91;97988.53;4969548;28;20465;-85
2021/07/23 06:02:05;;;;;;;16.70;15.20;;;22.70;55.90;;;20.52;56.16;97957.59;4972609;28;20469;-85
2021/07/23 06:04:34;;;;;;;18.03;16.33;;;22.80;55.60;;;20.55;56.69;98006.44;4969055;28;20463;-85
2021/07/23 06:07:04;;;;;;;17.27;15.30;;;22.70;55.60;;;20.44;57.70;98007.59;4967380;28;20473;-85
2021/07/23 06:09:31;;;;;;;16.73;15.20;;;22.70;55.80;;;20.54;56.84;97982.81;4974563;28;20448;-86
2021/07/23 06:12:00;;;;;;;18.10;15.67;;;22.80;55.50;;;20.21;57.83;97993.38;4977182;28;20479;-85
2021/07/23 06:14:27;;;;;;;18.53;16.77;;;22.60;55.80;;;20.46;56.82;97997.94;4988161;28;20461;-84
2021/07/23 06:16:56;;;;;;;19.53;17.53;;;22.40;55.80;;;20.97;55.61;98003.50;4977500;28;20461;-86
2021/07/23 06:19:23;;;;;;;17.40;15.63;;;22.50;56.00;;;20.19;57.70;97990.94;4981035;28;20488;-85
2021/07/23 06:21:50;;;;;;;19.30;17.60;;;22.10;56.00;;;20.57;56.45;97989.69;4977926;28;20508;-85
2021/07/23 06:24:17;;;;;;;17.73;16.13;;;22.50;56.00;;;20.02;58.43;97998.69;4989356;28;20528;-85
2021/07/23 06:26:44;;;;;;;19.03;16.93;;;22.00;56.30;;;19.67;59.37;98012.94;4979308;28;20461;-85
2021/07/23 06:29:11;;;;;;;19.80;18.00;;;21.30;56.90;;;19.46;59.93;98006.63;4984490;28;22758;-85
2021/07/23 06:31:38;;;;;;;19.33;17.20;;;20.80;57.60;;;19.34;60.51;98003.38;4977823;28;20480;-85
2021/07/23 06:34:07;;;;;;;18.53;16.70;;;20.60;58.20;;;18.87;61.27;97955.91;4979027;28;20517;-85
2021/07/23 06:36:35;;;;;;;18.50;16.80;;;20.40;58.50;;;19.37;61.26;98008.31;4979183;28;20472;-84
2021/07/23 06:39:02;;;;;;;18.50;16.50;;;20.50;58.80;;;19.33;61.39;98001.69;4977867;28;20512;-85
2021/07/23 06:41:29;;;;;;;19.17;17.17;;;20.60;59.00;;;19.50;61.05;98010.50;4978205;28;20504;-86
2021/07/23 06:43:57;;;;;;;20.40;18.40;;;20.70;59.10;;;19.44;60.40;97995.13;4970037;28;20548;-85
2021/07/23 06:46:24;;;;;;;20.50;18.40;;;20.70;58.70;;;19.27;60.93;97975.41;4977904;28;20977;-86
2021/07/23 06:48:51;;;;;;;22.00;19.80;;;20.50;58.90;;;19.19;60.89;97968.56;4981209;28;20469;-85
2021/07/23 06:51:20;;;;;;;18.93;17.17;;;20.40;59.00;;;19.46;60.66;98003.09;4973297;28;20573;-86
2021/07/23 06:53:46;;;;;;;21.33;18.03;;;20.50;59.30;;;19.61;61.16;98010.47;4980143;28;20453;-88
2021/07/23 06:56:14;;;;;;;20.03;17.83;;;20.60;59.40;;;19.65;59.77;97995.16;4989369;28;20505;-84
2021/07/23 06:58:41;;;;;;;19.60;17.47;;;20.80;58.70;;;19.99;59.39;98001.94;4980404;28;20508;-85
2021/07/23 07:01:09;;;;;;;18.53;16.60;;;21.10;58.80;;;20.17;59.09;97995.06;4987038;28;20505;-87
2021/07/23 07:03:36;;;;;;;21.13;17.20;;;21.30;58.80;;;20.45;58.86;97998.25;4980975;28;20482;-82
2021/07/23 07:06:04;;;;;;;20.10;18.03;;;21.50;58.60;;;20.32;57.66;97995.00;4978618;28;20460;-82
2021/07/23 07:08:32;;;;;;;19.20;17.30;;;21.40;57.80;;;20.48;58.33;98005.91;4978002;28;20453;-81
2021/07/23 07:11:01;;;;;;;19.80;17.90;;;21.50;58.20;;;20.36;57.53;98009.00;4968528;28;20895;-85
2021/07/23 07:13:28;;;;;;;20.90;16.63;;;21.50;57.50;;;20.53;57.28;98014.94;4976758;28;20449;-80
2021/07/23 07:15:56;;;;;;;20.07;18.07;;;21.60;57.60;;;20.78;57.21;98004.13;4971634;28;20470;-80
2021/07/23 07:18:23;;;;;;;17.73;15.93;;;21.80;57.70;;;21.00;56.85;97995.50;4972530;28;20568;-79
2021/07/23 07:20:50;;;;;;;18.60;16.80;;;22.10;57.80;;;21.05;55.57;98002.91;4976108;28;20560;-79
2021/07/23 07:23:17;;;;;;;19.57;17.57;;;22.20;56.90;;;20.93;55.75;98006.00;4966696;28;20454;-79
2021/07/23 07:25:45;;;;;;;19.40;17.50;;;22.10;56.80;;;21.06;56.28;98010.03;4968954;28;20503;-82
2021/07/23 07:28:12;;;;;;;19.20;17.23;;;22.10;57.20;;;21.21;55.95;98012.69;4974229;28;20478;-79
2021/07/23 07:30:39;;;;;;;18.10;16.20;;;22.20;57.10;;;21.17;56.11;98014.34;4982502;28;20450;-79
2021/07/23 07:33:06;;;;;;;20.43;16.80;;;22.30;57.10;;;21.45;55.21;98017.44;4981078;28;20465;-82
2021/07/23 07:35:33;;;;;;;19.00;17.10;;;22.50;57.10;;;21.48;55.43;97997.63;4982505;28;20454;-81
2021/07/23 07:38:01;;;;;;;19.70;17.63;;;22.60;57.00;;;21.50;55.21;98013.81;4976926;28;20532;-80
2021/07/23 07:40:28;;;;;;;19.00;17.03;;;22.40;56.80;;;21.61;54.96;97998.88;4982994;28;20932;-79
2021/07/23 07:42:56;;;;;;;20.13;18.23;;;22.60;57.00;;;21.73;54.33;98003.22;4975785;28;20469;-82
2021/07/23 07:45:23;;;;;;;18.30;16.47;;;22.70;56.90;;;21.88;54.03;98002.25;4979890;28;20452;-79
2021/07/23 07:47:52;;;;;;;18.40;16.70;;;22.80;56.60;;;21.98;54.00;97991.16;4976851;28;20444;-83
2021/07/23 07:50:19;;;;;;;20.27;16.30;;;22.80;56.90;;;22.17;53.49;97999.47;4980513;28;20923;-82
2021/07/23 07:52:46;;;;;;;18.93;16.30;;;22.90;56.70;;;21.91;54.14;98007.16;4986403;28;20480;-81
2021/07/23 07:55:13;;;;;;;19.20;17.27;;;22.90;56.70;;;22.07;53.83;98005.91;4977156;28;21028;-84
2021/07/23 07:57:42;;;;;;;18.97;17.13;;;23.00;56.60;;;22.33;53.57;97991.03;4983658;28;21041;-81
2021/07/23 08:00:12;;;;;;;19.90;17.97;;;23.10;56.90;;;21.82;55.36;98003.41;4984418;28;20465;-80
2021/07/23 08:02:39;;;;;;;19.90;17.57;;;22.70;57.00;;;21.94;55.65;98001.91;4984928;28;20476;-84
2021/07/23 08:05:08;;;;;;;20.33;18.40;;;22.80;57.50;;;21.93;56.14;98004.97;4979906;28;20477;-84
2021/07/23 08:07:35;;;;;;;20.00;17.87;;;22.80;57.80;;;21.48;56.29;98008.63;4981728;28;20800;-80
2021/07/23 08:10:03;;;;;;;23.40;18.77;;;22.70;57.30;;;21.59;56.11;98005.78;4980770;28;20445;-79
2021/07/23 08:12:31;;;;;;;20.00;18.00;;;22.70;57.30;;;22.17;54.94;98002.22;4985706;28;20456;-79
2021/07/23 08:14:59;;;;;;;22.90;17.93;;;23.10;57.40;;;22.45;54.94;97998.88;4970221;28;20460;-79
2021/07/23 08:17:42;;;;;;;26.23;19.47;;;23.30;57.60;;;22.91;53.41;98003.00;4980027;28;20547;-79
2021/07/23 08:20:12;;;;;;;21.10;18.37;;;23.60;57.40;;;22.14;55.33;97994.56;4979989;28;20821;-82
2021/07/23 08:22:39;;;;;;;20.43;18.23;;;23.40;57.20;;;22.64;54.48;97997.00;4990761;28;20557;-81
2021/07/23 08:25:07;;;;;;;21.50;19.37;;;23.60;57.40;;;22.46;55.15;98000.50;4978444;28;20814;-80
2021/07/23 08:27:34;;;;;;;22.53;20.33;;;23.50;57.30;;;22.08;54.76;97984.72;4979353;28;20452;-83
2021/07/23 08:30:02;;;;;;;22.20;20.07;;;23.30;56.80;;;22.60;54.27;98004.22;4977572;28;20446;-81
2021/07/23 08:32:36;;;;;;;22.50;19.70;;;23.40;57.00;;;23.01;53.42;97993.75;4989564;28;20480;-82
2021/07/23 08:35:06;;;;;;;18.60;16.63;;;23.60;56.90;;;22.77;53.70;98000.97;4979556;28;20552;-80
2021/07/23 08:37:34;;;;;;;19.80;17.90;;;23.70;56.90;;;22.54;54.97;97988.88;4986124;28;20457;-88
2021/07/23 08:40:04;;;;;;;21.33;19.07;;;23.60;57.20;;;22.66;55.52;97998.63;4978244;28;20476;-80
2021/07/23 08:42:33;;;;;;;22.53;17.43;;;23.60;57.80;;;22.53;54.73;97954.22;4978159;28;20485;-81
2021/07/23 08:45:03;;;;;;;21.40;19.43;;;23.70;57.50;;;22.58;54.23;97992.69;4970630;28;20538;-77
2021/07/23 08:47:30;;;;;;;19.67;17.53;;;23.60;56.80;;;23.11;53.17;97990.81;4972662;28;20946;-76
2021/07/23 08:49:58;;;;;;;20.90;18.67;;;23.80;56.80;;;22.85;53.37;97988.47;4970299;28;20460;-78
2021/07/23 08:52:43;;;;;;;23.43;18.33;;;23.90;56.30;;;22.82;53.16;97980.78;4970389;28;20461;-77
2021/07/23 08:55:13;;;;;;;18.83;16.87;;;23.80;56.50;;;22.99;53.08;97991.28;4969719;28;20453;-77
2021/07/23 08:57:41;;;;;;;18.70;16.97;;;23.90;56.30;;;23.13;52.49;97985.84;4969192;28;20977;-76
2021/07/23 09:00:11;;;;;;;19.07;15.87;;;24.00;56.10;;;23.46;51.88;97983.16;4970410;28;20457;-77
2021/07/23 09:02:55;;;;;;;18.33;15.17;;;24.30;56.10;;;23.81;50.92;97995.78;4968730;28;20471;-77
2021/07/23 09:05:25;;;;;;;17.03;15.10;;;24.60;55.70;;;24.11;50.62;97997.22;4969491;28;20462;-77
2021/07/23 09:07:54;;;;;;;17.20;15.47;;;24.90;55.90;;;24.17;51.01;97981.34;4971242;28;20457;-76
2021/07/23 09:10:24;;;;;;;16.70;15.30;;;24.90;56.00;;;23.73;51.52;97981.59;4970255;28;20473;-79
2021/07/23 09:12:54;;;;;;;16.80;15.23;;;24.70;55.90;;;23.53;51.55;97988.28;4970212;28;20532;-78
2021/07/23 09:15:27;;;;;;;16.47;14.90;;;24.60;55.70;;;23.49;51.25;97988.06;4969774;28;20465;-76
2021/07/23 09:17:55;;;;;;;17.23;15.27;;;24.50;55.50;;;23.95;50.03;97985.59;4970173;28;20536;-77
2021/07/23 09:20:25;;;;;;;17.53;15.83;;;24.70;55.20;;;24.10;49.81;97972.66;4969526;28;20968;-77
2021/07/23 09:22:55;;;;;;;16.43;14.90;;;24.90;55.40;;;23.51;50.71;97984.19;4969691;28;20477;-77
2021/07/23 09:25:50;;;;;;;17.97;14.37;;;24.60;54.80;;;23.84;50.30;97978.63;4970728;28;20540;-77
2021/07/23 09:28:26;;;;;;;15.20;13.70;;;24.70;55.60;;;23.75;49.77;97978.50;4970648;28;20453;-80
2021/07/23 09:30:55;;;;;;;15.87;14.47;;;24.60;54.50;;;23.86;48.67;97973.63;4971248;28;20456;-76
2021/07/23 09:33:35;;;;;;;15.40;14.00;;;24.80;54.70;;;24.01;48.44;97970.56;4973829;28;20749;-76
2021/07/23 09:36:04;;;;;;;14.90;12.90;;;24.80;54.10;;;24.24;47.88;97973.50;4971996;28;20467;-79
2021/07/23 09:38:38;;;;;;;15.17;13.73;;;25.00;53.90;;;23.95;48.57;97970.97;4971771;28;20516;-76
2021/07/23 09:41:08;;;;;;;16.90;13.63;;;24.80;53.70;;;24.38;48.13;97969.91;4971413;28;20449;-78
2021/07/23 09:43:38;;;;;;;14.13;12.80;;;25.10;53.90;;;24.19;48.06;97970.84;4970108;28;20467;-77
2021/07/23 09:46:26;;;;;;;13.37;11.77;;;25.10;53.80;;;24.44;46.36;97969.50;4971298;28;20469;-78
2021/07/23 09:48:55;;;;;;;13.40;12.20;;;25.20;53.20;;;24.15;44.65;97964.28;4970090;28;20496;-76
2021/07/23 09:51:25;;;;;;;13.03;11.83;;;25.00;51.20;;;24.48;43.17;97961.38;4971193;28;20459;-76
2021/07/23 09:53:55;;;;;;;12.50;11.40;;;25.20;50.70;;;24.47;41.37;97957.00;4971003;28;20580;-80
2021/07/23 09:56:25;;;;;;;13.37;11.97;;;25.10;49.60;;;24.79;42.71;97938.66;4969855;28;20515;-76
2021/07/23 09:59:03;;;;;;;12.50;11.30;;;25.40;50.40;;;24.59;43.73;97951.75;4970801;28;20504;-77
2021/07/23 10:01:37;;;;;;;14.30;12.10;;;25.30;50.80;;;24.92;42.40;97952.72;4971061;28;20486;-77
2021/07/23 10:04:12;;;;;;;12.73;11.47;;;25.50;50.40;;;24.57;43.59;97948.50;4971015;28;20456;-79
2021/07/23 10:06:50;;;;;;;12.80;11.70;;;25.30;50.50;;;24.66;42.95;97945.81;4968443;28;20924;-76
2021/07/23 10:09:26;;;;;;;12.40;11.20;;;25.50;50.20;;;25.05;42.92;97940.81;4969808;28;20453;-81
2021/07/23 10:11:53;;;;;;;14.87;12.20;;;25.70;50.60;;;24.98;42.44;97937.69;4971158;28;20481;-77